Terminal Aerodrome Forecast
Issued by NWS

Home | Current Version | Previous Version | Text Only | Print | Product List | Glossary On
Versions: 1 2 3 4 5 6 7 8 9 10 11 12 13 14 15 16
877
FTUS41 KBTV 272330
TAFRUT
TAF
KRUT 272330Z 2800/2824 20008KT P6SM SCT080
     FM280600 13005KT P6SM SCT100
     FM281400 28006KT P6SM SCT200
      AMD LTD TO CLD VIS AND WIND=

USA.gov is the U.S. government's official web portal to all federal, state and local government web resources and services.